sensor_id;sensor_type;location;lat;lon;timestamp;temperature;humidity
39503;DHT22;26970;49.900;10.774;2023-06-22T00:02:16;18.80;99.90
39503;DHT22;26970;49.900;10.774;2023-06-22T00:04:42;18.80;99.90
39503;DHT22;26970;49.900;10.774;2023-06-22T00:07:07;18.90;99.90
39503;DHT22;26970;49.900;10.774;2023-06-22T00:09:34;18.80;99.90
39503;DHT22;26970;49.900;10.774;2023-06-22T00:11:59;18.90;99.90
39503;DHT22;26970;49.900;10.774;2023-06-22T00:14:25;18.80;99.90
39503;DHT22;26970;49.900;10.774;2023-06-22T00:16:50;18.70;99.90
39503;DHT22;26970;49.900;10.774;2023-06-22T00:19:20;18.60;99.90
39503;DHT22;26970;49.900;10.774;2023-06-22T00:21:47;18.40;99.90
39503;DHT22;26970;49.900;10.774;2023-06-22T00:24:13;18.30;99.90
39503;DHT22;26970;49.900;10.774;2023-06-22T00:26:39;18.40;99.90
39503;DHT22;26970;49.900;10.774;2023-06-22T00:29:04;18.40;99.90
39503;DHT22;26970;49.900;10.774;2023-06-22T00:31:30;18.30;99.90
39503;DHT22;26970;49.900;10.774;2023-06-22T00:33:55;18.30;99.90
39503;DHT22;26970;49.900;10.774;2023-06-22T00:36:21;18.20;99.90
39503;DHT22;26970;49.900;10.774;2023-06-22T00:38:46;18.30;99.90
39503;DHT22;26970;49.900;10.774;2023-06-22T00:41:12;18.30;99.90
39503;DHT22;26970;49.900;10.774;2023-06-22T00:43:38;18.40;99.90
39503;DHT22;26970;49.900;10.774;2023-06-22T00:46:03;18.40;99.90
39503;DHT22;26970;49.900;10.774;2023-06-22T00:48:29;18.40;99.90
39503;DHT22;26970;49.900;10.774;2023-06-22T00:50:54;18.50;99.90
39503;DHT22;26970;49.900;10.774;2023-06-22T00:53:21;18.50;99.90
39503;DHT22;26970;49.900;10.774;2023-06-22T00:55:49;18.60;99.90
39503;DHT22;26970;49.900;10.774;2023-06-22T00:58:17;18.70;99.90
39503;DHT22;26970;49.900;10.774;2023-06-22T01:00:47;18.70;99.90
39503;DHT22;26970;49.900;10.774;2023-06-22T01:03:12;18.70;99.90
39503;DHT22;26970;49.900;10.774;2023-06-22T01:05:39;18.70;99.90
39503;DHT22;26970;49.900;10.774;2023-06-22T01:08:31;18.70;99.90
39503;DHT22;26970;49.900;10.774;2023-06-22T01:16:00;18.60;99.90
39503;DHT22;26970;49.900;10.774;2023-06-22T01:18:30;18.70;99.90
39503;DHT22;26970;49.900;10.774;2023-06-22T01:20:56;18.60;99.90
39503;DHT22;26970;49.900;10.774;2023-06-22T01:29:04;18.50;99.90
39503;DHT22;26970;49.900;10.774;2023-06-22T01:31:31;18.50;99.90
39503;DHT22;26970;49.900;10.774;2023-06-22T01:34:01;18.40;99.90
39503;DHT22;26970;49.900;10.774;2023-06-22T01:36:28;18.40;99.90
39503;DHT22;26970;49.900;10.774;2023-06-22T01:38:54;18.40;99.90
39503;DHT22;26970;49.900;10.774;2023-06-22T01:41:24;18.30;99.90
39503;DHT22;26970;49.900;10.774;2023-06-22T01:43:50;18.30;99.90
39503;DHT22;26970;49.900;10.774;2023-06-22T01:46:17;18.30;99.90
39503;DHT22;26970;49.900;10.774;2023-06-22T01:48:45;18.20;99.90
39503;DHT22;26970;49.900;10.774;2023-06-22T01:51:11;18.60;99.90
39503;DHT22;26970;49.900;10.774;2023-06-22T01:53:37;18.20;99.90
39503;DHT22;26970;49.900;10.774;2023-06-22T01:56:03;18.20;99.90
39503;DHT22;26970;49.900;10.774;2023-06-22T01:58:30;18.20;99.90
39503;DHT22;26970;49.900;10.774;2023-06-22T02:01:11;18.20;99.90
39503;DHT22;26970;49.900;10.774;2023-06-22T02:04:00;18.20;99.90
39503;DHT22;26970;49.900;10.774;2023-06-22T02:06:31;18.20;99.90
39503;DHT22;26970;49.900;10.774;2023-06-22T02:09:02;18.20;99.90
39503;DHT22;26970;49.900;10.774;2023-06-22T02:11:31;18.20;99.90
39503;DHT22;26970;49.900;10.774;2023-06-22T02:13:57;18.20;99.90
39503;DHT22;26970;49.900;10.774;2023-06-22T02:16:23;18.20;99.90
39503;DHT22;26970;49.900;10.774;2023-06-22T02:18:50;18.20;99.90
39503;DHT22;26970;49.900;10.774;2023-06-22T02:21:19;18.20;99.90
39503;DHT22;26970;49.900;10.774;2023-06-22T02:23:45;18.20;99.90
39503;DHT22;26970;49.900;10.774;2023-06-22T02:26:12;18.30;99.90
39503;DHT22;26970;49.900;10.774;2023-06-22T02:28:38;18.30;99.90
39503;DHT22;26970;49.900;10.774;2023-06-22T02:31:03;18.30;99.90
39503;DHT22;26970;49.900;10.774;2023-06-22T02:33:29;18.30;99.90
39503;DHT22;26970;49.900;10.774;2023-06-22T02:35:55;18.30;99.90
39503;DHT22;26970;49.900;10.774;2023-06-22T02:38:21;18.30;99.90
39503;DHT22;26970;49.900;10.774;2023-06-22T02:40:50;18.20;99.90
39503;DHT22;26970;49.900;10.774;2023-06-22T02:43:15;18.10;99.90
39503;DHT22;26970;49.900;10.774;2023-06-22T02:45:41;18.10;99.90
39503;DHT22;26970;49.900;10.774;2023-06-22T02:48:06;18.10;99.90
39503;DHT22;26970;49.900;10.774;2023-06-22T02:50:32;18.10;99.90
39503;DHT22;26970;49.900;10.774;2023-06-22T02:52:57;18.20;99.90
39503;DHT22;26970;49.900;10.774;2023-06-22T02:55:23;18.20;99.90
39503;DHT22;26970;49.900;10.774;2023-06-22T02:57:49;18.30;99.90
39503;DHT22;26970;49.900;10.774;2023-06-22T03:00:18;18.30;99.90
39503;DHT22;26970;49.900;10.774;2023-06-22T03:02:45;18.30;99.90
39503;DHT22;26970;49.900;10.774;2023-06-22T03:05:11;18.30;99.90
39503;DHT22;26970;49.900;10.774;2023-06-22T03:07:40;18.40;99.90
39503;DHT22;26970;49.900;10.774;2023-06-22T03:10:06;18.40;99.90
39503;DHT22;26970;49.900;10.774;2023-06-22T03:12:32;18.40;99.90
39503;DHT22;26970;49.900;10.774;2023-06-22T03:14:57;18.40;99.90
39503;DHT22;26970;49.900;10.774;2023-06-22T03:17:23;18.30;99.90
39503;DHT22;26970;49.900;10.774;2023-06-22T03:19:49;18.40;99.90
39503;DHT22;26970;49.900;10.774;2023-06-22T03:22:14;18.30;99.90
39503;DHT22;26970;49.900;10.774;2023-06-22T03:24:40;18.20;99.90
39503;DHT22;26970;49.900;10.774;2023-06-22T03:27:06;18.20;99.90
39503;DHT22;26970;49.900;10.774;2023-06-22T03:29:31;18.20;99.90
39503;DHT22;26970;49.900;10.774;2023-06-22T03:31:57;18.20;99.90
39503;DHT22;26970;49.900;10.774;2023-06-22T03:34:22;18.00;99.90
39503;DHT22;26970;49.900;10.774;2023-06-22T03:36:48;18.00;99.90
39503;DHT22;26970;49.900;10.774;2023-06-22T03:39:13;17.90;99.90
39503;DHT22;26970;49.900;10.774;2023-06-22T03:41:39;18.00;99.90
39503;DHT22;26970;49.900;10.774;2023-06-22T03:44:04;18.00;99.90
39503;DHT22;26970;49.900;10.774;2023-06-22T03:46:30;18.00;99.90
39503;DHT22;26970;49.900;10.774;2023-06-22T03:48:56;18.00;99.90
39503;DHT22;26970;49.900;10.774;2023-06-22T03:51:21;18.00;99.90
39503;DHT22;26970;49.900;10.774;2023-06-22T03:53:47;18.00;99.90
39503;DHT22;26970;49.900;10.774;2023-06-22T03:56:13;18.00;99.90
39503;DHT22;26970;49.900;10.774;2023-06-22T03:58:45;18.10;99.90
39503;DHT22;26970;49.900;10.774;2023-06-22T04:01:11;18.10;99.90
39503;DHT22;26970;49.900;10.774;2023-06-22T04:03:37;18.10;99.90
39503;DHT22;26970;49.900;10.774;2023-06-22T04:06:03;18.20;99.90
39503;DHT22;26970;49.900;10.774;2023-06-22T04:08:29;18.20;99.90
39503;DHT22;26970;49.900;10.774;2023-06-22T04:10:54;18.30;99.90
39503;DHT22;26970;49.900;10.774;2023-06-22T04:13:20;18.40;99.90
39503;DHT22;26970;49.900;10.774;2023-06-22T04:15:46;18.50;99.90
39503;DHT22;26970;49.900;10.774;2023-06-22T04:18:11;18.70;99.90
39503;DHT22;26970;49.900;10.774;2023-06-22T04:20:37;18.70;99.90
39503;DHT22;26970;49.900;10.774;2023-06-22T04:23:02;18.90;99.90
39503;DHT22;26970;49.900;10.774;2023-06-22T04:25:28;19.00;99.90
39503;DHT22;26970;49.900;10.774;2023-06-22T04:27:53;19.30;99.90
39503;DHT22;26970;49.900;10.774;2023-06-22T04:30:19;19.70;99.90
39503;DHT22;26970;49.900;10.774;2023-06-22T04:32:45;20.00;99.90
39503;DHT22;26970;49.900;10.774;2023-06-22T04:35:11;20.60;99.90
39503;DHT22;26970;49.900;10.774;2023-06-22T04:37:37;20.80;99.90
39503;DHT22;26970;49.900;10.774;2023-06-22T04:40:05;21.30;99.90
39503;DHT22;26970;49.900;10.774;2023-06-22T04:42:31;21.50;99.90
39503;DHT22;26970;49.900;10.774;2023-06-22T04:44:57;21.70;99.90
39503;DHT22;26970;49.900;10.774;2023-06-22T04:47:23;21.80;99.90
39503;DHT22;26970;49.900;10.774;2023-06-22T04:49:48;21.90;99.90
39503;DHT22;26970;49.900;10.774;2023-06-22T04:52:14;21.80;99.90
39503;DHT22;26970;49.900;10.774;2023-06-22T04:54:43;22.00;99.90
39503;DHT22;26970;49.900;10.774;2023-06-22T04:57:13;21.90;99.90
39503;DHT22;26970;49.900;10.774;2023-06-22T04:59:39;22.00;99.90
39503;DHT22;26970;49.900;10.774;2023-06-22T05:02:05;21.90;99.90
39503;DHT22;26970;49.900;10.774;2023-06-22T05:04:34;22.00;99.90
39503;DHT22;26970;49.900;10.774;2023-06-22T05:07:02;21.90;99.90
39503;DHT22;26970;49.900;10.774;2023-06-22T05:09:28;21.90;99.90
39503;DHT22;26970;49.900;10.774;2023-06-22T05:11:54;21.70;99.90
39503;DHT22;26970;49.900;10.774;2023-06-22T05:14:19;21.90;99.90
39503;DHT22;26970;49.900;10.774;2023-06-22T05:16:45;21.90;99.90
39503;DHT22;26970;49.900;10.774;2023-06-22T05:19:12;22.10;99.90
39503;DHT22;26970;49.900;10.774;2023-06-22T05:21:37;22.70;99.90
39503;DHT22;26970;49.900;10.774;2023-06-22T05:24:03;22.70;99.90
39503;DHT22;26970;49.900;10.774;2023-06-22T05:26:30;22.70;99.90
39503;DHT22;26970;49.900;10.774;2023-06-22T05:28:56;23.10;99.90
39503;DHT22;26970;49.900;10.774;2023-06-22T05:31:23;23.40;99.90
39503;DHT22;26970;49.900;10.774;2023-06-22T05:33:51;23.40;99.90
39503;DHT22;26970;49.900;10.774;2023-06-22T05:36:16;23.20;99.90
39503;DHT22;26970;49.900;10.774;2023-06-22T05:38:42;23.20;99.90
39503;DHT22;26970;49.900;10.774;2023-06-22T05:41:08;23.10;99.90
39503;DHT22;26970;49.900;10.774;2023-06-22T05:43:34;22.90;99.90
39503;DHT22;26970;49.900;10.774;2023-06-22T05:46:01;22.90;99.90
39503;DHT22;26970;49.900;10.774;2023-06-22T05:48:26;22.90;99.90
39503;DHT22;26970;49.900;10.774;2023-06-22T05:50:53;23.20;99.90
39503;DHT22;26970;49.900;10.774;2023-06-22T05:53:18;23.30;99.90
39503;DHT22;26970;49.900;10.774;2023-06-22T05:55:44;23.10;99.90
39503;DHT22;26970;49.900;10.774;2023-06-22T05:58:09;22.90;99.90
39503;DHT22;26970;49.900;10.774;2023-06-22T06:00:35;22.80;99.90
39503;DHT22;26970;49.900;10.774;2023-06-22T06:03:01;22.60;99.90
39503;DHT22;26970;49.900;10.774;2023-06-22T06:05:31;22.80;99.90
39503;DHT22;26970;49.900;10.774;2023-06-22T06:07:57;22.70;99.90
39503;DHT22;26970;49.900;10.774;2023-06-22T06:10:23;22.50;99.90
39503;DHT22;26970;49.900;10.774;2023-06-22T06:12:48;22.60;99.90
39503;DHT22;26970;49.900;10.774;2023-06-22T06:15:14;22.60;99.90
39503;DHT22;26970;49.900;10.774;2023-06-22T06:17:52;22.70;99.90
39503;DHT22;26970;49.900;10.774;2023-06-22T06:20:23;22.60;99.90
39503;DHT22;26970;49.900;10.774;2023-06-22T06:22:49;22.60;99.90
39503;DHT22;26970;49.900;10.774;2023-06-22T06:25:15;22.70;99.90
39503;DHT22;26970;49.900;10.774;2023-06-22T06:27:50;22.70;99.90
39503;DHT22;26970;49.900;10.774;2023-06-22T06:30:18;22.80;99.90
39503;DHT22;26970;49.900;10.774;2023-06-22T06:32:44;22.80;99.90
39503;DHT22;26970;49.900;10.774;2023-06-22T06:35:12;22.90;99.90
39503;DHT22;26970;49.900;10.774;2023-06-22T06:37:39;23.00;99.90
39503;DHT22;26970;49.900;10.774;2023-06-22T06:40:09;23.10;99.90
39503;DHT22;26970;49.900;10.774;2023-06-22T06:42:41;23.00;99.90
39503;DHT22;26970;49.900;10.774;2023-06-22T06:45:20;23.10;99.90
39503;DHT22;26970;49.900;10.774;2023-06-22T06:47:47;23.40;99.90
39503;DHT22;26970;49.900;10.774;2023-06-22T06:50:13;23.50;99.90
39503;DHT22;26970;49.900;10.774;2023-06-22T06:52:39;23.50;99.90
39503;DHT22;26970;49.900;10.774;2023-06-22T06:55:05;23.50;99.90
39503;DHT22;26970;49.900;10.774;2023-06-22T06:57:34;23.60;99.90
39503;DHT22;26970;49.900;10.774;2023-06-22T07:00:00;23.60;99.90
39503;DHT22;26970;49.900;10.774;2023-06-22T07:02:26;23.80;99.90
39503;DHT22;26970;49.900;10.774;2023-06-22T07:04:53;23.90;99.90
39503;DHT22;26970;49.900;10.774;2023-06-22T07:07:20;23.80;99.90
39503;DHT22;26970;49.900;10.774;2023-06-22T07:09:46;24.00;99.90
39503;DHT22;26970;49.900;10.774;2023-06-22T07:12:12;24.00;99.90
39503;DHT22;26970;49.900;10.774;2023-06-22T07:14:37;24.30;99.90
39503;DHT22;26970;49.900;10.774;2023-06-22T07:17:03;24.50;99.90
39503;DHT22;26970;49.900;10.774;2023-06-22T07:19:29;24.80;99.90
39503;DHT22;26970;49.900;10.774;2023-06-22T07:21:54;25.10;99.90
39503;DHT22;26970;49.900;10.774;2023-06-22T07:24:21;25.10;99.90
39503;DHT22;26970;49.900;10.774;2023-06-22T07:26:47;25.30;99.90
39503;DHT22;26970;49.900;10.774;2023-06-22T07:29:18;25.60;99.90
39503;DHT22;26970;49.900;10.774;2023-06-22T07:31:45;25.90;99.90
39503;DHT22;26970;49.900;10.774;2023-06-22T07:34:10;25.30;99.90
39503;DHT22;26970;49.900;10.774;2023-06-22T07:36:37;25.60;99.90
39503;DHT22;26970;49.900;10.774;2023-06-22T07:39:03;25.50;99.90
39503;DHT22;26970;49.900;10.774;2023-06-22T07:41:29;25.50;99.90
39503;DHT22;26970;49.900;10.774;2023-06-22T07:43:55;25.70;99.90
39503;DHT22;26970;49.900;10.774;2023-06-22T07:46:20;25.90;99.90
39503;DHT22;26970;49.900;10.774;2023-06-22T07:48:46;26.00;99.90
39503;DHT22;26970;49.900;10.774;2023-06-22T07:51:11;26.10;99.90
39503;DHT22;26970;49.900;10.774;2023-06-22T07:53:41;26.10;99.90
39503;DHT22;26970;49.900;10.774;2023-06-22T07:56:10;26.10;99.90
39503;DHT22;26970;49.900;10.774;2023-06-22T07:58:36;26.20;99.90
39503;DHT22;26970;49.900;10.774;2023-06-22T08:01:01;26.20;99.90
39503;DHT22;26970;49.900;10.774;2023-06-22T08:03:28;26.40;99.90
39503;DHT22;26970;49.900;10.774;2023-06-22T08:05:53;26.70;99.90
39503;DHT22;26970;49.900;10.774;2023-06-22T08:08:19;26.90;99.90
39503;DHT22;26970;49.900;10.774;2023-06-22T08:10:44;27.00;99.90
39503;DHT22;26970;49.900;10.774;2023-06-22T08:13:10;27.10;99.90
39503;DHT22;26970;49.900;10.774;2023-06-22T08:15:36;27.10;99.90
39503;DHT22;26970;49.900;10.774;2023-06-22T08:18:01;27.10;99.90
39503;DHT22;26970;49.900;10.774;2023-06-22T08:20:27;27.30;99.90
39503;DHT22;26970;49.900;10.774;2023-06-22T08:22:54;27.30;99.90
39503;DHT22;26970;49.900;10.774;2023-06-22T08:25:19;27.50;99.90
39503;DHT22;26970;49.900;10.774;2023-06-22T08:27:46;27.60;99.90
39503;DHT22;26970;49.900;10.774;2023-06-22T08:30:13;27.80;99.90
39503;DHT22;26970;49.900;10.774;2023-06-22T08:32:38;27.70;99.90
39503;DHT22;26970;49.900;10.774;2023-06-22T08:35:04;27.70;99.90
39503;DHT22;26970;49.900;10.774;2023-06-22T08:37:32;28.10;99.90
39503;DHT22;26970;49.900;10.774;2023-06-22T08:40:01;28.00;99.90
39503;DHT22;26970;49.900;10.774;2023-06-22T08:42:30;27.90;99.90
39503;DHT22;26970;49.900;10.774;2023-06-22T08:44:56;28.00;99.90
39503;DHT22;26970;49.900;10.774;2023-06-22T08:47:21;28.00;99.90
39503;DHT22;26970;49.900;10.774;2023-06-22T08:49:48;28.30;99.90
39503;DHT22;26970;49.900;10.774;2023-06-22T08:52:13;28.40;99.90
39503;DHT22;26970;49.900;10.774;2023-06-22T08:54:39;28.40;99.90
39503;DHT22;26970;49.900;10.774;2023-06-22T08:57:05;28.40;99.90
39503;DHT22;26970;49.900;10.774;2023-06-22T08:59:30;28.60;99.90
39503;DHT22;26970;49.900;10.774;2023-06-22T09:01:56;28.80;99.90
39503;DHT22;26970;49.900;10.774;2023-06-22T09:04:22;29.00;99.90
39503;DHT22;26970;49.900;10.774;2023-06-22T09:06:48;29.00;99.90
39503;DHT22;26970;49.900;10.774;2023-06-22T09:09:16;29.10;99.90
39503;DHT22;26970;49.900;10.774;2023-06-22T09:11:42;29.10;99.90
39503;DHT22;26970;49.900;10.774;2023-06-22T09:14:08;29.30;99.90
39503;DHT22;26970;49.900;10.774;2023-06-22T09:16:34;29.40;99.90
39503;DHT22;26970;49.900;10.774;2023-06-22T09:19:00;29.50;99.90
39503;DHT22;26970;49.900;10.774;2023-06-22T09:21:25;29.50;99.90
39503;DHT22;26970;49.900;10.774;2023-06-22T09:23:51;29.70;99.90
39503;DHT22;26970;49.900;10.774;2023-06-22T09:26:17;29.60;99.90
39503;DHT22;26970;49.900;10.774;2023-06-22T09:28:43;29.50;99.90
39503;DHT22;26970;49.900;10.774;2023-06-22T09:31:09;29.60;99.90
39503;DHT22;26970;49.900;10.774;2023-06-22T09:33:35;29.70;99.90
39503;DHT22;26970;49.900;10.774;2023-06-22T09:36:01;29.80;99.90
39503;DHT22;26970;49.900;10.774;2023-06-22T09:38:27;29.90;99.90
39503;DHT22;26970;49.900;10.774;2023-06-22T09:40:52;30.00;99.90
39503;DHT22;26970;49.900;10.774;2023-06-22T09:43:18;29.80;99.90
39503;DHT22;26970;49.900;10.774;2023-06-22T09:45:43;30.00;99.90
39503;DHT22;26970;49.900;10.774;2023-06-22T09:48:09;30.10;99.90
39503;DHT22;26970;49.900;10.774;2023-06-22T09:50:37;30.10;99.90
39503;DHT22;26970;49.900;10.774;2023-06-22T09:53:03;30.20;99.60
39503;DHT22;26970;49.900;10.774;2023-06-22T09:55:29;30.10;99.60
39503;DHT22;26970;49.900;10.774;2023-06-22T09:57:54;30.20;99.50
39503;DHT22;26970;49.900;10.774;2023-06-22T10:00:21;30.30;98.80
39503;DHT22;26970;49.900;10.774;2023-06-22T10:02:47;30.10;98.20
39503;DHT22;26970;49.900;10.774;2023-06-22T10:05:13;30.10;97.70
39503;DHT22;26970;49.900;10.774;2023-06-22T10:07:39;30.20;98.40
39503;DHT22;26970;49.900;10.774;2023-06-22T10:10:08;30.10;97.70
39503;DHT22;26970;49.900;10.774;2023-06-22T10:12:34;30.20;98.40
39503;DHT22;26970;49.900;10.774;2023-06-22T10:14:59;30.10;97.60
39503;DHT22;26970;49.900;10.774;2023-06-22T10:17:25;30.40;98.00
39503;DHT22;26970;49.900;10.774;2023-06-22T10:19:50;30.50;98.10
39503;DHT22;26970;49.900;10.774;2023-06-22T10:22:16;30.60;97.70
39503;DHT22;26970;49.900;10.774;2023-06-22T10:24:41;30.70;97.50
39503;DHT22;26970;49.900;10.774;2023-06-22T10:27:11;30.70;96.80
39503;DHT22;26970;49.900;10.774;2023-06-22T10:29:37;30.80;97.50
39503;DHT22;26970;49.900;10.774;2023-06-22T10:32:03;30.90;96.30
39503;DHT22;26970;49.900;10.774;2023-06-22T10:34:29;30.80;96.30
39503;DHT22;26970;49.900;10.774;2023-06-22T10:36:54;30.70;96.60
39503;DHT22;26970;49.900;10.774;2023-06-22T10:39:20;30.70;97.40
39503;DHT22;26970;49.900;10.774;2023-06-22T10:41:46;30.80;97.40
39503;DHT22;26970;49.900;10.774;2023-06-22T10:44:11;30.60;96.20
39503;DHT22;26970;49.900;10.774;2023-06-22T10:46:37;30.40;97.80
39503;DHT22;26970;49.900;10.774;2023-06-22T10:49:03;30.40;96.90
39503;DHT22;26970;49.900;10.774;2023-06-22T10:51:29;30.40;97.50
39503;DHT22;26970;49.900;10.774;2023-06-22T10:53:54;30.70;95.90
39503;DHT22;26970;49.900;10.774;2023-06-22T10:56:20;30.90;96.70
39503;DHT22;26970;49.900;10.774;2023-06-22T10:58:45;30.70;97.00
39503;DHT22;26970;49.900;10.774;2023-06-22T11:01:11;30.90;96.40
39503;DHT22;26970;49.900;10.774;2023-06-22T11:03:36;31.00;97.00
39503;DHT22;26970;49.900;10.774;2023-06-22T11:06:02;31.10;95.90
39503;DHT22;26970;49.900;10.774;2023-06-22T11:08:28;31.20;96.20
39503;DHT22;26970;49.900;10.774;2023-06-22T11:10:53;31.20;95.60
39503;DHT22;26970;49.900;10.774;2023-06-22T11:13:19;31.30;96.60
39503;DHT22;26970;49.900;10.774;2023-06-22T11:15:45;31.20;95.00
39503;DHT22;26970;49.900;10.774;2023-06-22T11:18:10;31.20;95.20
39503;DHT22;26970;49.900;10.774;2023-06-22T11:20:36;31.20;95.00
39503;DHT22;26970;49.900;10.774;2023-06-22T11:23:05;31.40;96.70
39503;DHT22;26970;49.900;10.774;2023-06-22T11:25:31;31.70;95.60
39503;DHT22;26970;49.900;10.774;2023-06-22T11:27:57;31.70;95.10
39503;DHT22;26970;49.900;10.774;2023-06-22T11:30:23;31.80;94.50
39503;DHT22;26970;49.900;10.774;2023-06-22T11:32:48;31.70;95.10
39503;DHT22;26970;49.900;10.774;2023-06-22T11:35:14;31.70;94.50
39503;DHT22;26970;49.900;10.774;2023-06-22T11:37:39;31.60;93.90
39503;DHT22;26970;49.900;10.774;2023-06-22T11:40:06;31.40;94.90
39503;DHT22;26970;49.900;10.774;2023-06-22T11:42:34;31.40;94.40
39503;DHT22;26970;49.900;10.774;2023-06-22T11:45:00;31.10;95.50
39503;DHT22;26970;49.900;10.774;2023-06-22T11:47:25;30.90;94.70
39503;DHT22;26970;49.900;10.774;2023-06-22T11:49:51;30.60;95.50
39503;DHT22;26970;49.900;10.774;2023-06-22T11:52:16;30.70;96.10
39503;DHT22;26970;49.900;10.774;2023-06-22T11:54:43;30.80;94.60
39503;DHT22;26970;49.900;10.774;2023-06-22T11:57:08;31.00;94.40
39503;DHT22;26970;49.900;10.774;2023-06-22T11:59:34;31.00;95.60
39503;DHT22;26970;49.900;10.774;2023-06-22T12:02:00;30.90;94.10
39503;DHT22;26970;49.900;10.774;2023-06-22T12:04:25;30.80;94.50
39503;DHT22;26970;49.900;10.774;2023-06-22T12:06:51;31.10;95.80
39503;DHT22;26970;49.900;10.774;2023-06-22T12:09:16;31.20;94.60
39503;DHT22;26970;49.900;10.774;2023-06-22T12:11:42;31.20;94.10
39503;DHT22;26970;49.900;10.774;2023-06-22T12:14:07;31.00;94.10
39503;DHT22;26970;49.900;10.774;2023-06-22T12:16:33;30.80;95.00
39503;DHT22;26970;49.900;10.774;2023-06-22T12:18:59;30.70;94.90
39503;DHT22;26970;49.900;10.774;2023-06-22T12:21:24;30.80;95.90
39503;DHT22;26970;49.900;10.774;2023-06-22T12:23:50;31.00;94.90
39503;DHT22;26970;49.900;10.774;2023-06-22T12:26:16;31.00;95.00
39503;DHT22;26970;49.900;10.774;2023-06-22T12:28:41;31.10;95.90
39503;DHT22;26970;49.900;10.774;2023-06-22T12:31:07;31.20;95.30
39503;DHT22;26970;49.900;10.774;2023-06-22T12:33:32;31.40;94.90
39503;DHT22;26970;49.900;10.774;2023-06-22T12:35:58;31.50;94.60
39503;DHT22;26970;49.900;10.774;2023-06-22T12:38:23;31.50;95.00
39503;DHT22;26970;49.900;10.774;2023-06-22T12:40:52;31.60;95.80
39503;DHT22;26970;49.900;10.774;2023-06-22T12:43:18;31.60;94.60
39503;DHT22;26970;49.900;10.774;2023-06-22T12:45:43;31.30;94.90
39503;DHT22;26970;49.900;10.774;2023-06-22T12:48:09;31.40;95.00
39503;DHT22;26970;49.900;10.774;2023-06-22T12:50:34;31.60;94.70
39503;DHT22;26970;49.900;10.774;2023-06-22T12:53:00;31.70;95.00
39503;DHT22;26970;49.900;10.774;2023-06-22T12:55:27;31.80;94.90
39503;DHT22;26970;49.900;10.774;2023-06-22T12:57:53;31.70;93.40
39503;DHT22;26970;49.900;10.774;2023-06-22T13:00:19;31.70;94.60
39503;DHT22;26970;49.900;10.774;2023-06-22T13:02:45;31.60;94.40
39503;DHT22;26970;49.900;10.774;2023-06-22T13:05:11;31.50;94.90
39503;DHT22;26970;49.900;10.774;2023-06-22T13:07:36;31.40;95.10
39503;DHT22;26970;49.900;10.774;2023-06-22T13:10:02;31.40;95.50
39503;DHT22;26970;49.900;10.774;2023-06-22T13:12:28;31.40;94.20
39503;DHT22;26970;49.900;10.774;2023-06-22T13:14:53;31.40;95.00
39503;DHT22;26970;49.900;10.774;2023-06-22T13:17:19;31.30;95.10
39503;DHT22;26970;49.900;10.774;2023-06-22T13:19:44;31.20;95.50
39503;DHT22;26970;49.900;10.774;2023-06-22T13:22:32;31.20;94.90
39503;DHT22;26970;49.900;10.774;2023-06-22T13:24:59;31.10;95.00
39503;DHT22;26970;49.900;10.774;2023-06-22T13:27:25;31.20;95.80
39503;DHT22;26970;49.900;10.774;2023-06-22T13:29:51;31.20;95.90
39503;DHT22;26970;49.900;10.774;2023-06-22T13:32:16;31.40;96.00
39503;DHT22;26970;49.900;10.774;2023-06-22T13:34:43;31.40;96.10
39503;DHT22;26970;49.900;10.774;2023-06-22T13:37:08;31.40;95.70
39503;DHT22;26970;49.900;10.774;2023-06-22T13:39:34;31.20;94.60
39503;DHT22;26970;49.900;10.774;2023-06-22T13:41:59;31.20;95.70
39503;DHT22;26970;49.900;10.774;2023-06-22T13:44:25;31.40;95.80
39503;DHT22;26970;49.900;10.774;2023-06-22T13:46:54;31.50;96.10
39503;DHT22;26970;49.900;10.774;2023-06-22T13:49:20;31.70;95.60
39503;DHT22;26970;49.900;10.774;2023-06-22T13:51:47;31.80;96.10
39503;DHT22;26970;49.900;10.774;2023-06-22T13:54:13;31.70;95.00
39503;DHT22;26970;49.900;10.774;2023-06-22T13:56:39;31.50;95.20
39503;DHT22;26970;49.900;10.774;2023-06-22T13:59:04;31.30;94.90
39503;DHT22;26970;49.900;10.774;2023-06-22T14:01:30;31.40;94.90
39503;DHT22;26970;49.900;10.774;2023-06-22T14:03:55;31.20;95.10
39503;DHT22;26970;49.900;10.774;2023-06-22T14:06:21;31.30;95.80
39503;DHT22;26970;49.900;10.774;2023-06-22T14:08:46;31.40;96.10
39503;DHT22;26970;49.900;10.774;2023-06-22T14:11:12;31.60;95.70
39503;DHT22;26970;49.900;10.774;2023-06-22T14:13:37;31.60;95.60
39503;DHT22;26970;49.900;10.774;2023-06-22T14:16:03;31.70;95.70
39503;DHT22;26970;49.900;10.774;2023-06-22T14:18:29;31.80;96.30
39503;DHT22;26970;49.900;10.774;2023-06-22T14:20:55;31.90;95.80
39503;DHT22;26970;49.900;10.774;2023-06-22T14:23:20;32.00;94.90
39503;DHT22;26970;49.900;10.774;2023-06-22T14:25:46;31.90;94.20
39503;DHT22;26970;49.900;10.774;2023-06-22T14:28:12;32.00;94.80
39503;DHT22;26970;49.900;10.774;2023-06-22T14:30:37;32.00;94.30
39503;DHT22;26970;49.900;10.774;2023-06-22T14:33:03;32.00;93.80
39503;DHT22;26970;49.900;10.774;2023-06-22T14:35:28;32.10;95.10
39503;DHT22;26970;49.900;10.774;2023-06-22T14:37:54;32.20;94.70
39503;DHT22;26970;49.900;10.774;2023-06-22T14:40:19;32.20;95.10
39503;DHT22;26970;49.900;10.774;2023-06-22T14:42:45;32.20;94.40
39503;DHT22;26970;49.900;10.774;2023-06-22T14:45:12;32.30;94.90
39503;DHT22;26970;49.900;10.774;2023-06-22T14:47:38;32.40;94.70
39503;DHT22;26970;49.900;10.774;2023-06-22T14:50:04;32.50;94.20
39503;DHT22;26970;49.900;10.774;2023-06-22T14:52:29;32.60;94.00
39503;DHT22;26970;49.900;10.774;2023-06-22T14:54:55;32.60;93.60
39503;DHT22;26970;49.900;10.774;2023-06-22T14:57:21;32.50;94.00
39503;DHT22;26970;49.900;10.774;2023-06-22T14:59:48;32.40;93.60
39503;DHT22;26970;49.900;10.774;2023-06-22T15:02:14;32.40;93.30
39503;DHT22;26970;49.900;10.774;2023-06-22T15:04:40;32.40;93.90
39503;DHT22;26970;49.900;10.774;2023-06-22T15:07:06;32.50;94.20
39503;DHT22;26970;49.900;10.774;2023-06-22T15:09:31;32.50;93.40
39503;DHT22;26970;49.900;10.774;2023-06-22T15:11:58;32.40;94.30
39503;DHT22;26970;49.900;10.774;2023-06-22T15:14:29;32.30;94.40
39503;DHT22;26970;49.900;10.774;2023-06-22T15:16:55;32.20;94.50
39503;DHT22;26970;49.900;10.774;2023-06-22T15:19:20;32.20;94.40
39503;DHT22;26970;49.900;10.774;2023-06-22T15:21:46;32.30;94.40